createdAt,value
2023-01-17T00:02:01.779Z,15.25
2023-01-17T00:04:47.896Z,18.75
2023-01-17T00:07:34.781Z,18.08
2023-01-17T00:10:07.259Z,15.77
2023-01-17T00:12:34.587Z,15.82
2023-01-17T00:15:01.864Z,19.42
2023-01-17T00:17:29.647Z,18.33
2023-01-17T00:20:16.934Z,19.23
2023-01-17T00:23:03.082Z,18.77
2023-01-17T00:25:52.031Z,14.50
2023-01-17T00:30:46.345Z,20.90
2023-01-17T00:33:13.321Z,22.10
2023-01-17T00:35:40.285Z,19.60
2023-01-17T00:38:09.742Z,20.50
2023-01-17T00:40:38.031Z,23.38
2023-01-17T00:43:24.034Z,19.43
2023-01-17T00:46:09.945Z,23.55
2023-01-17T00:48:56.399Z,20.55
2023-01-17T00:51:42.939Z,22.13
2023-01-17T00:54:28.459Z,19.83
2023-01-17T00:57:14.224Z,26.48
2023-01-17T00:59:59.383Z,16.50
2023-01-17T01:02:45.359Z,19.08
2023-01-17T01:05:31.485Z,22.42
2023-01-17T01:08:16.824Z,37.17
2023-01-17T01:11:03.731Z,34.20
2023-01-17T01:13:50.407Z,33.95
2023-01-17T01:16:37.073Z,41.10
2023-01-17T01:19:23.744Z,36.55
2023-01-17T01:22:08.892Z,47.88
2023-01-17T01:24:54.424Z,48.15
2023-01-17T01:27:39.780Z,43.83
2023-01-17T01:30:25.652Z,56.25
2023-01-17T01:33:10.981Z,50.58
2023-01-17T01:35:37.622Z,56.22
2023-01-17T01:38:04.617Z,59.08
2023-01-17T01:40:31.331Z,55.22
2023-01-17T01:43:00.234Z,51.42
2023-01-17T01:45:32.314Z,55.70
2023-01-17T01:48:23.564Z,51.60
2023-01-17T01:50:51.015Z,57.65
2023-01-17T01:53:20.334Z,60.63
2023-01-17T01:55:49.561Z,59.83
2023-01-17T01:58:25.356Z,62.10
2023-01-17T02:00:51.982Z,63.25
2023-01-17T02:03:23.948Z,68.43
2023-01-17T02:05:51.195Z,61.20
2023-01-17T02:08:21.237Z,65.75
2023-01-17T02:10:48.280Z,66.15
2023-01-17T02:13:19.516Z,59.80
2023-01-17T02:16:12.812Z,56.80
2023-01-17T02:18:51.332Z,52.05
2023-01-17T02:21:34.006Z,63.45
2023-01-17T02:24:27.741Z,56.25
2023-01-17T02:27:00.554Z,58.75
2023-01-17T02:29:36.103Z,69.50
2023-01-17T02:32:27.681Z,47.47
2023-01-17T02:35:04.575Z,56.78
2023-01-17T02:37:42.994Z,56.72
2023-01-17T02:40:09.552Z,47.50
2023-01-17T02:42:44.725Z,58.63
2023-01-17T02:45:17.546Z,54.92
2023-01-17T02:47:44.342Z,50.28
2023-01-17T02:50:17.204Z,52.40
2023-01-17T02:53:02.477Z,54.95
2023-01-17T02:55:38.213Z,56.42
2023-01-17T02:58:13.442Z,52.40
2023-01-17T03:00:50.159Z,52.40
2023-01-17T03:03:32.852Z,49.30
2023-01-17T03:06:17.475Z,52.70
2023-01-17T03:08:46.796Z,49.63
2023-01-17T03:11:13.537Z,57.67
2023-01-17T03:13:41.201Z,44.75
2023-01-17T03:16:29.382Z,48.88
2023-01-17T03:18:56.081Z,47.63
2023-01-17T03:21:24.206Z,42.95
2023-01-17T03:23:51.041Z,57.08
2023-01-17T03:26:17.873Z,44.38
2023-01-17T03:28:44.670Z,47.92
2023-01-17T03:31:15.222Z,54.45
2023-01-17T03:33:41.768Z,41.97
2023-01-17T03:36:09.152Z,46.10
2023-01-17T03:38:37.405Z,54.10
2023-01-17T03:41:04.895Z,47.67
2023-01-17T03:43:31.473Z,47.25
2023-01-17T03:46:17.894Z,47.15
2023-01-17T03:48:44.762Z,48.42
2023-01-17T03:51:11.331Z,41.42
2023-01-17T03:53:37.960Z,46.75
2023-01-17T03:56:04.680Z,51.10
2023-01-17T03:58:31.195Z,44.53
2023-01-17T04:00:57.825Z,42.65
2023-01-17T04:03:24.484Z,52.35
2023-01-17T04:05:51.307Z,46.55
2023-01-17T04:08:17.974Z,39.38
2023-01-17T04:10:44.602Z,40.42
2023-01-17T04:13:11.214Z,48.50
2023-01-17T04:15:38.572Z,56.45
2023-01-17T04:18:06.860Z,52.53
2023-01-17T04:20:36.467Z,52.73
2023-01-17T04:23:03.390Z,50.67
2023-01-17T04:25:30.976Z,42.47
2023-01-17T04:27:59.615Z,46.47
2023-01-17T04:30:27.455Z,65.38
2023-01-17T04:32:54.516Z,59.97
2023-01-17T04:35:21.548Z,54.53
2023-01-17T04:37:48.125Z,46.63
2023-01-17T04:40:15.122Z,58.47
2023-01-17T04:42:44.132Z,62.85
2023-01-17T04:45:12.222Z,67.28
2023-01-17T04:47:39.064Z,58.60
2023-01-17T04:50:06.292Z,57.10
2023-01-17T04:52:32.939Z,53.10
2023-01-17T04:54:59.579Z,50.40
2023-01-17T04:57:26.131Z,49.63
2023-01-17T04:59:55.961Z,38.58
2023-01-17T05:02:22.570Z,43.42
2023-01-17T05:04:49.155Z,37.63
2023-01-17T05:07:15.802Z,39.88
2023-01-17T05:09:43.900Z,41.80
2023-01-17T05:12:10.496Z,43.03
2023-01-17T05:14:37.090Z,42.17
2023-01-17T05:17:03.716Z,42.83
2023-01-17T05:19:30.301Z,30.95
2023-01-17T05:22:03.624Z,44.75
2023-01-17T05:24:31.450Z,40.22
2023-01-17T05:27:02.514Z,45.40
2023-01-17T05:29:30.364Z,44.78
2023-01-17T05:31:57.212Z,42.63
2023-01-17T05:34:24.137Z,38.65
2023-01-17T05:36:50.822Z,38.67
2023-01-17T05:39:17.470Z,39.80
2023-01-17T05:41:44.488Z,38.70
2023-01-17T05:44:11.131Z,41.35
2023-01-17T05:46:37.902Z,47.28
2023-01-17T05:49:04.635Z,55.05
2023-01-17T05:51:31.260Z,45.53
2023-01-17T05:53:57.882Z,56.00
2023-01-17T05:56:24.414Z,52.33
2023-01-17T05:58:51.048Z,35.67
2023-01-17T06:01:17.799Z,36.08
2023-01-17T06:03:44.414Z,43.28
2023-01-17T06:06:11.006Z,33.13
2023-01-17T06:08:37.704Z,33.67
2023-01-17T06:11:04.319Z,25.58
2023-01-17T06:13:30.986Z,27.85
2023-01-17T06:16:02.773Z,28.92
2023-01-17T06:18:30.278Z,32.72
2023-01-17T06:20:56.993Z,37.38
2023-01-17T06:23:24.838Z,32.92
2023-01-17T06:25:52.005Z,31.92
2023-01-17T06:28:21.226Z,27.30
2023-01-17T06:30:48.327Z,28.75
2023-01-17T06:33:15.347Z,35.35
2023-01-17T06:35:52.641Z,22.38
2023-01-17T06:38:20.075Z,35.80
2023-01-17T06:40:46.876Z,33.67
2023-01-17T06:43:13.472Z,34.15
2023-01-17T06:45:39.993Z,25.55
2023-01-17T06:48:06.786Z,25.77
2023-01-17T06:50:34.529Z,26.20
2023-01-17T06:53:04.018Z,23.63
2023-01-17T06:55:33.893Z,26.73
2023-01-17T06:58:02.985Z,28.20
2023-01-17T07:02:57.507Z,30.95
2023-01-17T07:05:24.535Z,37.53
2023-01-17T07:07:51.280Z,27.00
2023-01-17T07:10:18.021Z,27.40
2023-01-17T07:12:44.644Z,23.23
2023-01-17T07:15:12.095Z,22.00
2023-01-17T07:17:39.285Z,23.90
2023-01-17T07:20:06.920Z,19.55
2023-01-17T07:22:33.480Z,15.32
2023-01-17T07:25:00.342Z,15.18
2023-01-17T07:27:30.245Z,17.00
2023-01-17T07:29:57.771Z,15.18
2023-01-17T07:32:26.672Z,15.75
2023-01-17T07:34:54.097Z,18.35
2023-01-17T07:37:21.083Z,12.68
2023-01-17T07:39:47.702Z,15.90
2023-01-17T07:42:14.249Z,10.38
2023-01-17T07:44:43.907Z,14.02
2023-01-17T07:47:11.219Z,11.43
2023-01-17T07:49:38.046Z,14.45
2023-01-17T07:52:07.498Z,13.00
2023-01-17T07:54:34.497Z,10.75
2023-01-17T07:57:01.641Z,16.35
2023-01-17T07:59:28.341Z,10.23
2023-01-17T08:01:55.440Z,10.43
2023-01-17T08:04:25.690Z,10.50
2023-01-17T08:06:52.297Z,15.90
2023-01-17T08:09:18.830Z,12.13
2023-01-17T08:11:45.411Z,10.82
2023-01-17T08:14:11.925Z,10.43
2023-01-17T08:16:40.131Z,13.82
2023-01-17T08:19:06.922Z,16.63
2023-01-17T08:21:33.484Z,9.10
2023-01-17T08:24:00.083Z,13.48
2023-01-17T08:26:27.725Z,9.98
2023-01-17T08:28:56.842Z,13.75
2023-01-17T08:33:50.767Z,10.98
2023-01-17T08:36:17.598Z,13.27
2023-01-17T08:38:44.229Z,16.45
2023-01-17T08:41:10.881Z,15.30
2023-01-17T08:43:37.470Z,16.77
2023-01-17T08:46:06.380Z,14.10
2023-01-17T08:48:33.086Z,8.82
2023-01-17T08:51:03.103Z,14.40
2023-01-17T08:53:29.704Z,19.10
2023-01-17T08:56:01.224Z,13.40
2023-01-17T08:58:30.578Z,18.33
2023-01-17T09:01:03.056Z,11.35
2023-01-17T09:03:30.881Z,10.25
2023-01-17T09:06:12.105Z,16.23
2023-01-17T09:08:39.370Z,7.70
2023-01-17T09:11:14.992Z,11.93
2023-01-17T09:13:42.175Z,13.68
2023-01-17T09:16:09.780Z,16.20
2023-01-17T09:18:37.130Z,12.50
2023-01-17T09:21:17.588Z,13.98
2023-01-17T09:23:44.796Z,11.88
2023-01-17T09:26:21.323Z,18.33
2023-01-17T09:28:48.802Z,21.80
2023-01-17T09:31:17.579Z,7.47
2023-01-17T09:33:44.694Z,9.93
2023-01-17T09:36:11.646Z,15.60
2023-01-17T09:38:38.706Z,14.45
2023-01-17T09:41:22.084Z,11.13
2023-01-17T09:43:56.631Z,8.60
2023-01-17T09:46:28.676Z,10.77
2023-01-17T09:49:13.057Z,9.50
2023-01-17T09:51:40.064Z,8.48
2023-01-17T09:54:21.987Z,12.90
2023-01-17T09:57:18.787Z,9.77
2023-01-17T10:00:13.043Z,9.75
2023-01-17T10:03:01.115Z,10.07
2023-01-17T10:05:49.493Z,9.27
2023-01-17T10:08:22.161Z,9.00
2023-01-17T10:11:02.146Z,6.18
2023-01-17T10:13:31.883Z,9.32
2023-01-17T10:16:10.384Z,6.13
2023-01-17T10:19:15.530Z,5.32
2023-01-17T10:22:10.831Z,11.15
2023-01-17T10:25:15.989Z,8.25
2023-01-17T10:27:58.356Z,9.85
2023-01-17T10:30:45.156Z,9.38
2023-01-17T10:33:38.058Z,8.73
2023-01-17T10:36:20.573Z,7.25
2023-01-17T10:38:51.486Z,8.88
2023-01-17T10:41:38.368Z,5.70
2023-01-17T10:44:19.781Z,8.63
2023-01-17T10:47:11.089Z,6.45
2023-01-17T10:49:42.642Z,7.38
2023-01-17T10:52:16.672Z,9.95
2023-01-17T10:55:10.064Z,9.45
2023-01-17T10:57:45.157Z,7.82
2023-01-17T11:00:34.617Z,12.02
2023-01-17T11:03:02.415Z,6.97
2023-01-17T11:05:34.076Z,9.75
2023-01-17T11:08:03.804Z,10.52
2023-01-17T11:10:57.230Z,4.10
2023-01-17T11:13:31.495Z,11.43
2023-01-17T11:16:06.203Z,9.05
2023-01-17T11:18:37.561Z,6.05
2023-01-17T11:21:15.811Z,6.20
2023-01-17T11:23:45.539Z,3.90
2023-01-17T11:26:30.495Z,8.13
2023-01-17T11:29:35.808Z,5.03
2023-01-17T11:32:22.762Z,4.68
2023-01-17T11:35:16.242Z,3.20
2023-01-17T11:38:03.233Z,5.57
2023-01-17T11:40:36.030Z,8.40
2023-01-17T11:43:26.258Z,4.50
2023-01-17T11:46:17.143Z,8.15
2023-01-17T11:48:49.758Z,4.00
2023-01-17T11:51:20.905Z,4.90
2023-01-17T11:53:48.298Z,4.72
2023-01-17T11:56:24.317Z,6.00
2023-01-17T11:58:51.467Z,3.85
2023-01-17T12:01:47.783Z,11.85
2023-01-17T12:04:24.257Z,3.90
2023-01-17T12:06:58.789Z,5.85
2023-01-17T12:09:55.729Z,7.57
2023-01-17T12:13:06.660Z,4.30
2023-01-17T12:15:53.474Z,4.43
2023-01-17T12:18:25.999Z,4.55
2023-01-17T12:21:17.809Z,7.35
2023-01-17T12:23:58.105Z,5.40
2023-01-17T12:27:11.027Z,8.95
2023-01-17T12:29:47.017Z,5.22
2023-01-17T12:32:39.436Z,6.10
2023-01-17T12:35:14.941Z,8.48
2023-01-17T12:37:45.812Z,4.13
2023-01-17T12:40:45.069Z,3.88
2023-01-17T12:43:22.355Z,4.63
2023-01-17T12:45:51.793Z,6.78
2023-01-17T12:48:20.354Z,5.00
2023-01-17T12:50:49.660Z,8.85
2023-01-17T12:53:27.851Z,8.45
2023-01-17T12:56:17.348Z,7.00
2023-01-17T12:58:53.492Z,6.68
2023-01-17T13:01:27.864Z,7.32
2023-01-17T13:04:16.609Z,5.25
2023-01-17T13:06:58.981Z,6.30
2023-01-17T13:09:30.999Z,5.15
2023-01-17T13:12:12.420Z,3.55
2023-01-17T13:14:39.070Z,6.97
2023-01-17T13:17:33.381Z,7.35
2023-01-17T13:20:22.775Z,15.55
2023-01-17T13:22:51.714Z,7.40
2023-01-17T13:25:59.951Z,2.38
2023-01-17T13:28:50.394Z,7.22
2023-01-17T13:31:19.605Z,5.32
2023-01-17T13:33:52.141Z,5.30
2023-01-17T13:36:44.195Z,6.80
2023-01-17T13:39:44.244Z,6.05
2023-01-17T13:42:32.412Z,3.55
2023-01-17T13:44:59.078Z,2.53
2023-01-17T13:47:25.775Z,7.57
2023-01-17T13:49:56.480Z,6.10
2023-01-17T13:52:26.125Z,7.82
2023-01-17T13:54:57.395Z,5.65
2023-01-17T13:57:29.386Z,5.93
2023-01-17T13:59:57.934Z,8.68
2023-01-17T14:02:33.782Z,5.87
2023-01-17T14:05:24.110Z,11.93
2023-01-17T14:08:02.289Z,3.03
2023-01-17T14:10:53.222Z,5.60
2023-01-17T14:13:39.845Z,8.73
2023-01-17T14:16:30.488Z,5.28
2023-01-17T14:18:57.484Z,8.40
2023-01-17T14:21:27.209Z,7.80
2023-01-17T14:24:00.706Z,6.20
2023-01-17T14:26:41.254Z,5.88
2023-01-17T14:29:45.609Z,8.75
2023-01-17T14:32:24.298Z,5.22
2023-01-17T14:34:52.594Z,7.25
2023-01-17T14:37:30.481Z,9.95
2023-01-17T14:39:57.133Z,4.50
2023-01-17T14:42:26.673Z,4.53
2023-01-17T14:45:03.329Z,4.47
2023-01-17T14:47:33.567Z,4.88
2023-01-17T14:50:23.390Z,2.75
2023-01-17T14:53:08.284Z,5.97
2023-01-17T14:55:35.033Z,7.25
2023-01-17T14:58:01.623Z,6.10
2023-01-17T15:00:33.576Z,6.85
2023-01-17T15:03:02.194Z,5.43
2023-01-17T15:05:30.270Z,5.68
2023-01-17T15:07:58.163Z,5.60
2023-01-17T15:10:31.012Z,7.53
2023-01-17T15:13:05.769Z,6.72
2023-01-17T15:15:39.601Z,8.10
2023-01-17T15:18:19.459Z,43.92
2023-01-17T15:20:54.552Z,4.97
2023-01-17T15:23:23.111Z,5.10
2023-01-17T15:25:51.611Z,20.27
2023-01-17T15:28:18.721Z,11.75
2023-01-17T15:31:05.724Z,9.88
2023-01-17T15:33:34.443Z,5.95
2023-01-17T15:36:04.582Z,6.13
2023-01-17T15:38:38.541Z,9.27
2023-01-17T15:41:21.293Z,11.73
2023-01-17T15:43:48.084Z,5.47
2023-01-17T15:46:28.592Z,5.35
2023-01-17T15:49:13.836Z,5.13
2023-01-17T15:51:47.147Z,11.40
2023-01-17T15:54:29.061Z,5.88
2023-01-17T15:57:18.107Z,8.10
2023-01-17T16:02:43.816Z,5.18
2023-01-17T16:05:27.559Z,9.98
2023-01-17T16:07:56.196Z,11.43
2023-01-17T16:10:28.762Z,7.35
2023-01-17T16:12:56.329Z,6.15
2023-01-17T16:15:23.714Z,15.75
2023-01-17T16:17:54.398Z,11.43
2023-01-17T16:20:24.918Z,17.90
2023-01-17T16:22:52.265Z,20.10
2023-01-17T16:25:22.240Z,17.08
2023-01-17T16:27:49.993Z,13.70
2023-01-17T16:30:21.322Z,13.35
2023-01-17T16:32:49.245Z,10.50
2023-01-17T16:35:22.796Z,10.52
2023-01-17T16:37:50.424Z,18.05
2023-01-17T16:40:18.911Z,10.20
2023-01-17T16:42:45.728Z,9.80
2023-01-17T16:45:13.529Z,13.77
2023-01-17T16:47:44.957Z,12.73
2023-01-17T16:50:15.063Z,12.35
2023-01-17T16:52:42.551Z,13.80
2023-01-17T16:55:12.771Z,18.30
2023-01-17T16:57:39.586Z,16.80
2023-01-17T17:00:07.582Z,16.60
2023-01-17T17:02:34.249Z,11.40
2023-01-17T17:05:00.960Z,16.75
2023-01-17T17:07:27.641Z,15.27
2023-01-17T17:09:54.241Z,15.20
2023-01-17T17:12:20.899Z,12.43
2023-01-17T17:14:47.448Z,20.67
2023-01-17T17:17:14.088Z,32.35
2023-01-17T17:19:40.663Z,12.85
2023-01-17T17:22:07.380Z,14.30
2023-01-17T17:24:34.126Z,12.95
2023-01-17T17:27:00.729Z,13.63
2023-01-17T17:29:27.306Z,12.02
2023-01-17T17:31:53.975Z,15.98
2023-01-17T17:34:22.395Z,19.90
2023-01-17T17:36:49.129Z,9.35
2023-01-17T17:39:15.818Z,15.63
2023-01-17T17:41:44.538Z,14.50
2023-01-17T17:44:12.033Z,12.68
2023-01-17T17:46:38.908Z,10.48
2023-01-17T17:49:06.752Z,12.30
2023-01-17T17:51:36.430Z,15.40
2023-01-17T17:54:08.611Z,12.52
2023-01-17T17:56:35.890Z,15.15
2023-01-17T17:59:04.295Z,15.18
2023-01-17T18:01:31.441Z,12.32
2023-01-17T18:04:02.382Z,10.30
2023-01-17T18:06:29.457Z,14.52
2023-01-17T18:08:56.171Z,18.55
2023-01-17T18:11:26.126Z,16.13
2023-01-17T18:13:55.070Z,17.70
2023-01-17T18:16:28.771Z,27.35
2023-01-17T18:18:57.593Z,14.82
2023-01-17T18:21:27.478Z,17.50
2023-01-17T18:23:58.882Z,10.68
2023-01-17T18:26:31.579Z,13.60
2023-01-17T18:28:59.761Z,14.10
2023-01-17T18:31:28.844Z,17.90
2023-01-17T18:33:58.080Z,13.98
2023-01-17T18:38:52.060Z,9.70
2023-01-17T18:41:18.614Z,12.23
2023-01-17T18:43:45.776Z,10.07
2023-01-17T18:46:13.108Z,14.05
2023-01-17T18:48:41.460Z,19.73
2023-01-17T18:51:10.510Z,15.17
2023-01-17T18:56:07.219Z,14.88
2023-01-17T18:58:41.263Z,13.40
2023-01-17T19:01:11.888Z,15.77
2023-01-17T19:03:40.557Z,15.68
2023-01-17T19:06:10.843Z,15.15
2023-01-17T19:08:37.347Z,12.35
2023-01-17T19:11:07.221Z,20.13
2023-01-17T19:13:35.970Z,22.92
2023-01-17T19:16:05.499Z,16.02
2023-01-17T19:18:32.948Z,19.42
2023-01-17T19:21:13.132Z,17.58
2023-01-17T19:23:40.192Z,23.85
2023-01-17T19:26:08.495Z,18.10
2023-01-17T19:28:43.077Z,18.87
2023-01-17T19:31:13.853Z,20.58
2023-01-17T19:33:43.679Z,20.33
2023-01-17T19:36:19.590Z,20.88
2023-01-17T19:39:03.064Z,13.75
2023-01-17T19:41:31.289Z,19.42
2023-01-17T19:44:00.292Z,15.23
2023-01-17T19:46:27.670Z,17.40
2023-01-17T19:48:55.963Z,14.85
2023-01-17T19:51:23.076Z,14.20
2023-01-17T19:53:49.687Z,14.10
2023-01-17T19:56:18.807Z,13.68
2023-01-17T20:01:24.734Z,12.98
2023-01-17T20:03:51.845Z,15.10
2023-01-17T20:06:24.025Z,19.35
2023-01-17T20:08:50.756Z,12.45
2023-01-17T20:11:19.929Z,11.02
2023-01-17T20:16:19.121Z,15.77
2023-01-17T20:18:45.801Z,17.13
2023-01-17T20:21:17.145Z,14.30
2023-01-17T20:23:46.869Z,12.73
2023-01-17T20:26:15.426Z,14.32
2023-01-17T20:28:43.844Z,11.93
2023-01-17T20:31:13.323Z,12.35
2023-01-17T20:33:44.218Z,13.18
2023-01-17T20:36:16.598Z,15.82
2023-01-17T20:38:45.345Z,15.40
2023-01-17T20:41:11.932Z,12.23
2023-01-17T20:43:38.569Z,16.00
2023-01-17T20:46:06.456Z,17.70
2023-01-17T20:48:33.291Z,15.73
2023-01-17T20:51:10.418Z,16.33
2023-01-17T20:53:38.621Z,17.10
2023-01-17T20:56:06.216Z,14.53
2023-01-17T20:58:33.999Z,20.45
2023-01-17T21:01:01.564Z,17.60
2023-01-17T21:03:33.719Z,15.90
2023-01-17T21:06:11.705Z,13.70
2023-01-17T21:08:40.516Z,20.23
2023-01-17T21:11:09.000Z,16.23
2023-01-17T21:13:36.249Z,15.10
2023-01-17T21:16:03.112Z,17.67
2023-01-17T21:18:31.860Z,13.38
2023-01-17T21:21:14.463Z,23.38
2023-01-17T21:23:42.162Z,19.58
2023-01-17T21:26:11.963Z,18.52
2023-01-17T21:28:40.707Z,13.50
2023-01-17T21:31:29.411Z,13.80
2023-01-17T21:34:07.638Z,19.58
2023-01-17T21:36:36.735Z,20.92
2023-01-17T21:41:41.442Z,15.15
2023-01-17T21:44:12.931Z,16.52
2023-01-17T21:46:41.078Z,19.77
2023-01-17T21:49:11.852Z,30.63
2023-01-17T21:52:05.889Z,26.20
2023-01-17T21:54:51.183Z,28.85
2023-01-17T21:57:39.229Z,23.48
2023-01-17T22:00:12.344Z,28.83
2023-01-17T22:02:39.915Z,26.85
2023-01-17T22:05:08.868Z,27.00
2023-01-17T22:07:35.487Z,22.88
2023-01-17T22:10:02.225Z,28.90
2023-01-17T22:12:28.795Z,25.30
2023-01-17T22:14:55.355Z,21.92
2023-01-17T22:17:22.394Z,29.65
2023-01-17T22:19:49.299Z,22.30
2023-01-17T22:22:15.996Z,16.13
2023-01-17T22:24:42.604Z,24.83
2023-01-17T22:27:10.006Z,24.90
2023-01-17T22:29:37.593Z,21.58
2023-01-17T22:32:04.398Z,21.90
2023-01-17T22:34:30.980Z,19.80
2023-01-17T22:36:57.594Z,17.98
2023-01-17T22:39:24.207Z,22.63
2023-01-17T22:41:50.741Z,19.27
2023-01-17T22:44:17.973Z,20.40
2023-01-17T22:46:44.694Z,21.70
2023-01-17T22:49:13.325Z,22.20
2023-01-17T22:51:41.199Z,27.23
2023-01-17T22:54:07.863Z,29.08
2023-01-17T22:56:34.622Z,24.45
2023-01-17T22:59:01.874Z,21.60
2023-01-17T23:01:30.714Z,20.42
2023-01-17T23:04:04.228Z,23.25
2023-01-17T23:06:35.224Z,21.33
2023-01-17T23:09:10.881Z,23.08
2023-01-17T23:11:43.285Z,19.48
2023-01-17T23:14:51.785Z,23.50
2023-01-17T23:17:41.128Z,20.30
2023-01-17T23:20:09.552Z,20.50
2023-01-17T23:22:36.311Z,22.45
2023-01-17T23:25:13.424Z,19.63
2023-01-17T23:28:04.033Z,22.83
2023-01-17T23:30:35.398Z,21.50
2023-01-17T23:33:10.119Z,15.90
2023-01-17T23:35:41.700Z,22.58
2023-01-17T23:38:34.607Z,21.55
2023-01-17T23:41:32.775Z,26.35
2023-01-17T23:43:59.400Z,17.83
2023-01-17T23:46:27.209Z,20.58
2023-01-17T23:48:54.959Z,19.35
2023-01-17T23:51:21.731Z,18.63
2023-01-17T23:53:48.385Z,18.85
2023-01-17T23:56:23.624Z,19.80
2023-01-17T23:58:50.655Z,19.02
